Sao Goncalo, Brazil
Current Conditions -  °F | °C
As of 10:00 AM on Friday 31 Oct 2014 (Local Time) from SBJU Reporting Station
Scattered Clouds Scattered Clouds  
Wind Chill: 90°   Ceiling: Unl
Heat Index: 91°   Visibility: 6mi
Dew Point: 64°   Wind: 8mph
Humidity: 43%   Direction: 80°E
Pressure: 30.06"   Gusts: NA
Location:  7.52°S, 39.77°W
Report Text: SBJU 311300Z 08007KT 9999 SCT022 32/18 Q1018
Loading
Personal Weather Stations






























Interactive Weather Map
Tropical Storm Tracking
New forecast layout! Learn more

10-Day Weather Forecast

Advertisements
Track Severe Weather on mobile